首页
METAR-TAF:

METAR-TAF

机场 :

La Grande/Union County Airport

La Grande, 俄勒冈州, 美国

纬度: 45-17N, 经度: 118-00W, 海拔: 827米

当前天气观测

该预报发布于37分钟前的10:56 UTC
风速10节,风向南转西南
温度 4°C
湿度 87%
气压 1015 hPa
能見度: 16.1公里
阴天层高于1900英尺
小雨

METAR: KLGD 181056Z AUTO 20010KT 10SM -RA OVC019 04/02 A2998 RMK AO2 SLP288 P0003 T00390017

时间: 03:33 (11:33 UTC)


TAF: 丢失

超过4000个机场的气象观测和天气预报(METAR&TAF报告)。

可查询的气象台以黄色和红色小点在地图上表示。

将鼠标移到小点上方,可查看气象台名称。

然后点击查看天气观测和预报。

如需切换地图:点击带黑十字的绿色按钮放大地图;点击带横线的绿色按钮缩小地图;或者点击绿色箭头查看邻近地区的地图。


METAR-TAF: